sensor_id;sensor_type;location;lat;lon;timestamp;temperature;humidity
25512;DHT22;13414;44.534;18.700;2022-07-21T01:39:48;16.10;99.90
25512;DHT22;13414;44.534;18.700;2022-07-21T01:42:32;16.10;99.90
25512;DHT22;13414;44.534;18.700;2022-07-21T01:45:00;16.00;99.90
25512;DHT22;13414;44.534;18.700;2022-07-21T01:47:27;16.00;99.90
25512;DHT22;13414;44.534;18.700;2022-07-21T01:49:54;16.00;99.90
25512;DHT22;13414;44.534;18.700;2022-07-21T01:52:22;15.90;99.90
25512;DHT22;13414;44.534;18.700;2022-07-21T01:54:50;15.90;99.90
25512;DHT22;13414;44.534;18.700;2022-07-21T01:57:18;15.80;99.90
25512;DHT22;13414;44.534;18.700;2022-07-21T01:59:45;15.80;99.90
25512;DHT22;13414;44.534;18.700;2022-07-21T02:02:12;15.80;99.90
25512;DHT22;13414;44.534;18.700;2022-07-21T02:04:40;15.80;99.90
25512;DHT22;13414;44.534;18.700;2022-07-21T02:07:07;15.70;99.90
25512;DHT22;13414;44.534;18.700;2022-07-21T02:09:34;15.70;99.90
25512;DHT22;13414;44.534;18.700;2022-07-21T02:12:04;15.70;99.90
25512;DHT22;13414;44.534;18.700;2022-07-21T02:14:31;15.70;99.90
25512;DHT22;13414;44.534;18.700;2022-07-21T02:16:58;15.60;99.90
25512;DHT22;13414;44.534;18.700;2022-07-21T02:19:26;15.60;99.90
25512;DHT22;13414;44.534;18.700;2022-07-21T02:21:53;15.60;99.90
25512;DHT22;13414;44.534;18.700;2022-07-21T02:24:20;15.50;99.90
25512;DHT22;13414;44.534;18.700;2022-07-21T02:26:48;15.60;99.90
25512;DHT22;13414;44.534;18.700;2022-07-21T02:29:16;15.50;99.90
25512;DHT22;13414;44.534;18.700;2022-07-21T02:31:44;15.50;99.90
25512;DHT22;13414;44.534;18.700;2022-07-21T02:34:11;15.50;99.90
25512;DHT22;13414;44.534;18.700;2022-07-21T02:36:38;15.40;99.90
25512;DHT22;13414;44.534;18.700;2022-07-21T02:39:06;15.40;99.90
25512;DHT22;13414;44.534;18.700;2022-07-21T02:41:33;15.40;99.90
25512;DHT22;13414;44.534;18.700;2022-07-21T02:44:00;15.30;99.90
25512;DHT22;13414;44.534;18.700;2022-07-21T02:46:29;15.30;99.90
25512;DHT22;13414;44.534;18.700;2022-07-21T02:48:56;15.20;99.90
25512;DHT22;13414;44.534;18.700;2022-07-21T02:51:27;15.20;99.90
25512;DHT22;13414;44.534;18.700;2022-07-21T02:53:55;15.20;99.90
25512;DHT22;13414;44.534;18.700;2022-07-21T02:56:22;15.10;99.90
25512;DHT22;13414;44.534;18.700;2022-07-21T02:58:49;15.10;99.90
25512;DHT22;13414;44.534;18.700;2022-07-21T03:01:17;15.10;99.90
25512;DHT22;13414;44.534;18.700;2022-07-21T03:03:48;15.10;99.90
25512;DHT22;13414;44.534;18.700;2022-07-21T03:06:15;15.10;99.90
25512;DHT22;13414;44.534;18.700;2022-07-21T03:08:43;15.00;99.90
25512;DHT22;13414;44.534;18.700;2022-07-21T03:11:10;15.00;99.90
25512;DHT22;13414;44.534;18.700;2022-07-21T03:13:37;15.10;99.90
25512;DHT22;13414;44.534;18.700;2022-07-21T03:16:04;15.10;99.90
25512;DHT22;13414;44.534;18.700;2022-07-21T03:18:32;15.00;99.90
25512;DHT22;13414;44.534;18.700;2022-07-21T03:21:02;14.90;99.90
25512;DHT22;13414;44.534;18.700;2022-07-21T03:23:29;15.00;99.90
25512;DHT22;13414;44.534;18.700;2022-07-21T03:25:57;14.90;99.90
25512;DHT22;13414;44.534;18.700;2022-07-21T03:28:24;15.00;99.90
25512;DHT22;13414;44.534;18.700;2022-07-21T03:30:51;15.00;99.90
25512;DHT22;13414;44.534;18.700;2022-07-21T03:33:18;15.00;99.90
25512;DHT22;13414;44.534;18.700;2022-07-21T03:35:46;15.10;99.90
25512;DHT22;13414;44.534;18.700;2022-07-21T03:38:14;15.10;99.90
25512;DHT22;13414;44.534;18.700;2022-07-21T03:40:42;15.10;99.90
25512;DHT22;13414;44.534;18.700;2022-07-21T03:43:09;15.10;99.90
25512;DHT22;13414;44.534;18.700;2022-07-21T03:45:36;15.10;99.90
25512;DHT22;13414;44.534;18.700;2022-07-21T03:48:05;15.20;99.90
25512;DHT22;13414;44.534;18.700;2022-07-21T03:50:33;15.20;99.90
25512;DHT22;13414;44.534;18.700;2022-07-21T03:53:01;15.20;99.90
25512;DHT22;13414;44.534;18.700;2022-07-21T03:55:30;15.30;99.90
25512;DHT22;13414;44.534;18.700;2022-07-21T03:58:00;15.40;99.90
25512;DHT22;13414;44.534;18.700;2022-07-21T04:00:31;15.60;99.90
25512;DHT22;13414;44.534;18.700;2022-07-21T04:02:59;16.10;99.90
25512;DHT22;13414;44.534;18.700;2022-07-21T04:05:27;16.80;99.90
25512;DHT22;13414;44.534;18.700;2022-07-21T04:07:54;17.40;99.90
25512;DHT22;13414;44.534;18.700;2022-07-21T04:10:23;18.00;99.90
25512;DHT22;13414;44.534;18.700;2022-07-21T04:12:54;18.40;99.90
25512;DHT22;13414;44.534;18.700;2022-07-21T04:15:22;19.00;99.90
25512;DHT22;13414;44.534;18.700;2022-07-21T04:17:49;19.40;99.90
25512;DHT22;13414;44.534;18.700;2022-07-21T04:20:17;19.80;99.90
25512;DHT22;13414;44.534;18.700;2022-07-21T04:22:46;20.20;99.90
25512;DHT22;13414;44.534;18.700;2022-07-21T04:25:14;20.30;99.90
25512;DHT22;13414;44.534;18.700;2022-07-21T04:27:42;20.70;99.90
25512;DHT22;13414;44.534;18.700;2022-07-21T04:30:14;21.00;99.90
25512;DHT22;13414;44.534;18.700;2022-07-21T04:32:41;21.30;99.90
25512;DHT22;13414;44.534;18.700;2022-07-21T04:35:09;21.60;99.90
25512;DHT22;13414;44.534;18.700;2022-07-21T04:37:37;21.60;99.90
25512;DHT22;13414;44.534;18.700;2022-07-21T04:40:06;22.50;99.90
25512;DHT22;13414;44.534;18.700;2022-07-21T04:42:34;23.00;99.90
25512;DHT22;13414;44.534;18.700;2022-07-21T04:45:03;23.40;99.90
25512;DHT22;13414;44.534;18.700;2022-07-21T04:47:32;23.80;99.90
25512;DHT22;13414;44.534;18.700;2022-07-21T04:49:59;24.20;99.90
25512;DHT22;13414;44.534;18.700;2022-07-21T04:52:27;24.70;99.90
25512;DHT22;13414;44.534;18.700;2022-07-21T04:54:54;25.30;99.90
25512;DHT22;13414;44.534;18.700;2022-07-21T04:57:21;25.60;99.90
25512;DHT22;13414;44.534;18.700;2022-07-21T04:59:48;26.00;99.90
25512;DHT22;13414;44.534;18.700;2022-07-21T05:02:15;26.40;99.90
25512;DHT22;13414;44.534;18.700;2022-07-21T05:04:44;26.10;99.90
25512;DHT22;13414;44.534;18.700;2022-07-21T05:07:11;25.40;99.90
25512;DHT22;13414;44.534;18.700;2022-07-21T05:09:39;24.80;99.90
25512;DHT22;13414;44.534;18.700;2022-07-21T05:12:06;24.40;99.90
25512;DHT22;13414;44.534;18.700;2022-07-21T05:14:33;25.00;99.90
25512;DHT22;13414;44.534;18.700;2022-07-21T05:17:01;25.90;99.90
25512;DHT22;13414;44.534;18.700;2022-07-21T05:19:28;26.40;99.90
25512;DHT22;13414;44.534;18.700;2022-07-21T05:21:57;27.40;98.20
25512;DHT22;13414;44.534;18.700;2022-07-21T05:24:24;27.80;97.20
25512;DHT22;13414;44.534;18.700;2022-07-21T05:26:51;27.90;95.80
25512;DHT22;13414;44.534;18.700;2022-07-21T05:29:18;28.00;94.80
25512;DHT22;13414;44.534;18.700;2022-07-21T05:31:46;28.10;93.50
25512;DHT22;13414;44.534;18.700;2022-07-21T05:34:13;27.70;93.20
25512;DHT22;13414;44.534;18.700;2022-07-21T05:36:40;27.50;92.60
25512;DHT22;13414;44.534;18.700;2022-07-21T05:39:09;27.50;93.20
25512;DHT22;13414;44.534;18.700;2022-07-21T05:41:36;27.50;93.00
25512;DHT22;13414;44.534;18.700;2022-07-21T05:44:03;27.80;91.90
25512;DHT22;13414;44.534;18.700;2022-07-21T05:46:31;27.80;92.40
25512;DHT22;13414;44.534;18.700;2022-07-21T05:48:58;27.80;92.60
25512;DHT22;13414;44.534;18.700;2022-07-21T05:51:25;27.70;92.50
25512;DHT22;13414;44.534;18.700;2022-07-21T05:53:53;27.60;92.40
25512;DHT22;13414;44.534;18.700;2022-07-21T05:56:21;27.10;92.50
25512;DHT22;13414;44.534;18.700;2022-07-21T05:58:49;27.10;93.20
25512;DHT22;13414;44.534;18.700;2022-07-21T06:01:16;27.20;92.90
25512;DHT22;13414;44.534;18.700;2022-07-21T06:03:45;27.00;93.10
25512;DHT22;13414;44.534;18.700;2022-07-21T06:06:14;26.70;92.80
25512;DHT22;13414;44.534;18.700;2022-07-21T06:08:44;26.60;93.40
25512;DHT22;13414;44.534;18.700;2022-07-21T06:11:13;26.60;93.30
25512;DHT22;13414;44.534;18.700;2022-07-21T06:13:42;26.50;93.30
25512;DHT22;13414;44.534;18.700;2022-07-21T06:16:09;26.70;92.90
25512;DHT22;13414;44.534;18.700;2022-07-21T06:18:37;26.80;93.20
25512;DHT22;13414;44.534;18.700;2022-07-21T06:21:04;27.00;93.40
25512;DHT22;13414;44.534;18.700;2022-07-21T06:23:32;27.10;92.70
25512;DHT22;13414;44.534;18.700;2022-07-21T06:25:59;27.00;92.50
25512;DHT22;13414;44.534;18.700;2022-07-21T06:28:27;27.10;92.60
25512;DHT22;13414;44.534;18.700;2022-07-21T06:30:55;27.40;92.30
25512;DHT22;13414;44.534;18.700;2022-07-21T06:33:23;27.70;92.00
25512;DHT22;13414;44.534;18.700;2022-07-21T06:35:50;27.70;92.20
25512;DHT22;13414;44.534;18.700;2022-07-21T06:38:17;27.80;92.20
25512;DHT22;13414;44.534;18.700;2022-07-21T06:40:45;27.50;91.50
25512;DHT22;13414;44.534;18.700;2022-07-21T06:43:12;27.50;91.80
25512;DHT22;13414;44.534;18.700;2022-07-21T06:45:39;27.80;91.60
25512;DHT22;13414;44.534;18.700;2022-07-21T06:48:09;28.10;91.60
25512;DHT22;13414;44.534;18.700;2022-07-21T06:50:36;28.30;91.10
25512;DHT22;13414;44.534;18.700;2022-07-21T06:53:04;28.50;91.10
25512;DHT22;13414;44.534;18.700;2022-07-21T06:55:32;28.60;91.00
25512;DHT22;13414;44.534;18.700;2022-07-21T06:58:09;28.40;90.70
25512;DHT22;13414;44.534;18.700;2022-07-21T07:00:36;28.50;92.00
25512;DHT22;13414;44.534;18.700;2022-07-21T07:03:04;28.70;91.10
25512;DHT22;13414;44.534;18.700;2022-07-21T07:05:33;28.80;90.90
25512;DHT22;13414;44.534;18.700;2022-07-21T07:08:00;29.00;91.70
25512;DHT22;13414;44.534;18.700;2022-07-21T07:10:28;29.10;91.10
25512;DHT22;13414;44.534;18.700;2022-07-21T07:12:55;29.20;89.00
25512;DHT22;13414;44.534;18.700;2022-07-21T07:15:23;28.90;88.90
25512;DHT22;13414;44.534;18.700;2022-07-21T07:17:51;29.00;88.70
25512;DHT22;13414;44.534;18.700;2022-07-21T07:20:18;29.30;88.90
25512;DHT22;13414;44.534;18.700;2022-07-21T07:22:47;29.30;88.60
25512;DHT22;13414;44.534;18.700;2022-07-21T07:25:15;29.50;87.50
25512;DHT22;13414;44.534;18.700;2022-07-21T07:27:43;29.70;86.20
25512;DHT22;13414;44.534;18.700;2022-07-21T07:30:11;29.70;88.10
25512;DHT22;13414;44.534;18.700;2022-07-21T07:32:39;29.80;88.60
25512;DHT22;13414;44.534;18.700;2022-07-21T07:35:08;29.90;88.30
25512;DHT22;13414;44.534;18.700;2022-07-21T07:37:36;29.90;88.70
25512;DHT22;13414;44.534;18.700;2022-07-21T07:40:07;30.10;92.80
25512;DHT22;13414;44.534;18.700;2022-07-21T07:42:35;30.30;93.30
25512;DHT22;13414;44.534;18.700;2022-07-21T07:45:04;30.20;90.30
25512;DHT22;13414;44.534;18.700;2022-07-21T07:47:32;30.10;90.30
25512;DHT22;13414;44.534;18.700;2022-07-21T07:49:59;30.10;90.90
25512;DHT22;13414;44.534;18.700;2022-07-21T07:52:27;30.00;90.90
25512;DHT22;13414;44.534;18.700;2022-07-21T07:54:55;30.10;91.00
25512;DHT22;13414;44.534;18.700;2022-07-21T07:57:23;30.20;91.30
25512;DHT22;13414;44.534;18.700;2022-07-21T07:59:51;30.50;90.70
25512;DHT22;13414;44.534;18.700;2022-07-21T08:02:18;30.60;90.30
25512;DHT22;13414;44.534;18.700;2022-07-21T08:04:45;30.60;90.30
25512;DHT22;13414;44.534;18.700;2022-07-21T08:07:13;30.50;90.40
25512;DHT22;13414;44.534;18.700;2022-07-21T08:09:40;30.30;91.30
25512;DHT22;13414;44.534;18.700;2022-07-21T08:12:08;30.20;90.60
25512;DHT22;13414;44.534;18.700;2022-07-21T08:14:36;30.10;90.80
25512;DHT22;13414;44.534;18.700;2022-07-21T08:17:04;30.00;91.10
25512;DHT22;13414;44.534;18.700;2022-07-21T08:19:32;29.90;90.70
25512;DHT22;13414;44.534;18.700;2022-07-21T08:21:59;30.10;90.90
25512;DHT22;13414;44.534;18.700;2022-07-21T08:24:27;30.40;90.10
25512;DHT22;13414;44.534;18.700;2022-07-21T08:26:54;30.70;90.00
25512;DHT22;13414;44.534;18.700;2022-07-21T08:29:21;30.80;91.30
25512;DHT22;13414;44.534;18.700;2022-07-21T08:31:50;30.80;88.00
25512;DHT22;13414;44.534;18.700;2022-07-21T08:34:17;31.10;88.30
25512;DHT22;13414;44.534;18.700;2022-07-21T08:36:45;31.30;87.30
25512;DHT22;13414;44.534;18.700;2022-07-21T08:39:12;31.20;83.90
25512;DHT22;13414;44.534;18.700;2022-07-21T08:41:40;31.20;83.90
25512;DHT22;13414;44.534;18.700;2022-07-21T08:44:07;31.30;82.90
25512;DHT22;13414;44.534;18.700;2022-07-21T08:46:38;31.30;81.80
25512;DHT22;13414;44.534;18.700;2022-07-21T08:49:07;31.30;80.60
25512;DHT22;13414;44.534;18.700;2022-07-21T08:51:35;31.40;80.00
25512;DHT22;13414;44.534;18.700;2022-07-21T08:54:03;31.60;79.10
25512;DHT22;13414;44.534;18.700;2022-07-21T08:56:31;31.50;77.10
25512;DHT22;13414;44.534;18.700;2022-07-21T08:58:58;31.50;76.30
25512;DHT22;13414;44.534;18.700;2022-07-21T09:01:25;31.50;75.90
25512;DHT22;13414;44.534;18.700;2022-07-21T09:03:53;31.60;75.70
25512;DHT22;13414;44.534;18.700;2022-07-21T09:06:22;31.70;75.80
25512;DHT22;13414;44.534;18.700;2022-07-21T09:08:51;31.80;74.30
25512;DHT22;13414;44.534;18.700;2022-07-21T09:11:21;31.90;73.80
25512;DHT22;13414;44.534;18.700;2022-07-21T09:14:04;31.70;74.10
25512;DHT22;13414;44.534;18.700;2022-07-21T09:16:33;31.80;73.70
25512;DHT22;13414;44.534;18.700;2022-07-21T09:19:02;32.10;72.60
25512;DHT22;13414;44.534;18.700;2022-07-21T09:21:32;32.10;72.20
25512;DHT22;13414;44.534;18.700;2022-07-21T09:24:19;32.10;71.30
25512;DHT22;13414;44.534;18.700;2022-07-21T09:27:01;32.10;71.20
25512;DHT22;13414;44.534;18.700;2022-07-21T09:29:43;32.20;71.20
25512;DHT22;13414;44.534;18.700;2022-07-21T09:32:24;32.30;71.00
25512;DHT22;13414;44.534;18.700;2022-07-21T09:34:55;32.50;70.00
25512;DHT22;13414;44.534;18.700;2022-07-21T09:37:26;32.50;69.70
25512;DHT22;13414;44.534;18.700;2022-07-21T09:39:56;32.60;69.30
25512;DHT22;13414;44.534;18.700;2022-07-21T09:42:26;32.80;68.10
25512;DHT22;13414;44.534;18.700;2022-07-21T09:44:57;32.80;67.60
25512;DHT22;13414;44.534;18.700;2022-07-21T09:47:26;33.00;66.90
25512;DHT22;13414;44.534;18.700;2022-07-21T09:49:54;33.20;65.70
25512;DHT22;13414;44.534;18.700;2022-07-21T09:52:28;33.30;64.80
25512;DHT22;13414;44.534;18.700;2022-07-21T09:54:58;33.50;62.30
25512;DHT22;13414;44.534;18.700;2022-07-21T09:57:27;33.50;58.20
25512;DHT22;13414;44.534;18.700;2022-07-21T09:59:55;33.30;58.30
25512;DHT22;13414;44.534;18.700;2022-07-21T10:02:25;33.40;58.70
25512;DHT22;13414;44.534;18.700;2022-07-21T10:04:57;33.50;58.40
25512;DHT22;13414;44.534;18.700;2022-07-21T10:07:27;33.50;58.10
25512;DHT22;13414;44.534;18.700;2022-07-21T10:09:55;33.60;57.50
25512;DHT22;13414;44.534;18.700;2022-07-21T10:12:24;33.50;57.10
25512;DHT22;13414;44.534;18.700;2022-07-21T10:14:53;33.30;57.20
25512;DHT22;13414;44.534;18.700;2022-07-21T10:17:22;33.40;56.40
25512;DHT22;13414;44.534;18.700;2022-07-21T10:20:00;33.20;56.40
25512;DHT22;13414;44.534;18.700;2022-07-21T10:22:49;33.00;56.60
25512;DHT22;13414;44.534;18.700;2022-07-21T10:25:19;33.20;56.40
25512;DHT22;13414;44.534;18.700;2022-07-21T10:30:46;33.50;55.90
25512;DHT22;13414;44.534;18.700;2022-07-21T10:33:17;33.70;55.40
25512;DHT22;13414;44.534;18.700;2022-07-21T10:35:46;33.80;54.90
25512;DHT22;13414;44.534;18.700;2022-07-21T10:38:29;33.90;54.00
25512;DHT22;13414;44.534;18.700;2022-07-21T10:40:58;34.00;53.40
25512;DHT22;13414;44.534;18.700;2022-07-21T10:43:40;34.00;51.20
25512;DHT22;13414;44.534;18.700;2022-07-21T10:46:36;33.80;50.00
25512;DHT22;13414;44.534;18.700;2022-07-21T10:49:08;33.50;50.60
25512;DHT22;13414;44.534;18.700;2022-07-21T10:51:37;33.50;50.10
25512;DHT22;13414;44.534;18.700;2022-07-21T10:54:25;33.50;50.30
25512;DHT22;13414;44.534;18.700;2022-07-21T10:57:24;33.40;50.30
25512;DHT22;13414;44.534;18.700;2022-07-21T11:00:24;33.60;50.20
25512;DHT22;13414;44.534;18.700;2022-07-21T11:02:55;33.20;50.20
25512;DHT22;13414;44.534;18.700;2022-07-21T11:05:24;33.40;49.90
25512;DHT22;13414;44.534;18.700;2022-07-21T11:08:13;33.30;49.90
25512;DHT22;13414;44.534;18.700;2022-07-21T11:10:43;33.40;50.40
25512;DHT22;13414;44.534;18.700;2022-07-21T11:13:13;33.40;50.40
25512;DHT22;13414;44.534;18.700;2022-07-21T11:15:56;33.60;50.60
25512;DHT22;13414;44.534;18.700;2022-07-21T11:18:25;33.50;50.30
25512;DHT22;13414;44.534;18.700;2022-07-21T11:21:11;33.30;49.60
25512;DHT22;13414;44.534;18.700;2022-07-21T11:23:43;33.10;49.60
25512;DHT22;13414;44.534;18.700;2022-07-21T11:26:15;33.20;49.30
25512;DHT22;13414;44.534;18.700;2022-07-21T11:28:43;33.00;49.40
25512;DHT22;13414;44.534;18.700;2022-07-21T11:31:24;33.10;49.70
25512;DHT22;13414;44.534;18.700;2022-07-21T11:33:52;33.30;50.00
25512;DHT22;13414;44.534;18.700;2022-07-21T11:36:28;33.40;49.60
25512;DHT22;13414;44.534;18.700;2022-07-21T11:39:02;33.50;49.50
25512;DHT22;13414;44.534;18.700;2022-07-21T11:41:32;33.80;49.30
25512;DHT22;13414;44.534;18.700;2022-07-21T11:44:00;33.90;49.00
25512;DHT22;13414;44.534;18.700;2022-07-21T11:46:29;34.00;48.50
25512;DHT22;13414;44.534;18.700;2022-07-21T11:49:11;33.80;48.30
25512;DHT22;13414;44.534;18.700;2022-07-21T11:51:49;33.70;48.50
25512;DHT22;13414;44.534;18.700;2022-07-21T11:54:22;33.80;48.40
25512;DHT22;13414;44.534;18.700;2022-07-21T11:56:52;33.70;48.30
25512;DHT22;13414;44.534;18.700;2022-07-21T11:59:21;33.60;48.80
25512;DHT22;13414;44.534;18.700;2022-07-21T12:02:01;33.70;48.80
25512;DHT22;13414;44.534;18.700;2022-07-21T12:04:40;33.60;48.80
25512;DHT22;13414;44.534;18.700;2022-07-21T12:07:17;33.80;48.40
25512;DHT22;13414;44.534;18.700;2022-07-21T12:09:47;33.90;48.50
25512;DHT22;13414;44.534;18.700;2022-07-21T12:12:31;33.90;48.40
25512;DHT22;13414;44.534;18.700;2022-07-21T12:15:13;33.90;47.80
25512;DHT22;13414;44.534;18.700;2022-07-21T12:17:45;33.70;47.40
25512;DHT22;13414;44.534;18.700;2022-07-21T12:20:14;33.50;47.90
25512;DHT22;13414;44.534;18.700;2022-07-21T12:22:44;33.50;47.70
25512;DHT22;13414;44.534;18.700;2022-07-21T12:25:14;33.50;47.60
25512;DHT22;13414;44.534;18.700;2022-07-21T12:27:45;33.60;47.40
25512;DHT22;13414;44.534;18.700;2022-07-21T12:30:33;33.60;47.20
25512;DHT22;13414;44.534;18.700;2022-07-21T12:33:03;33.60;47.00
25512;DHT22;13414;44.534;18.700;2022-07-21T12:35:33;33.70;47.40
25512;DHT22;13414;44.534;18.700;2022-07-21T12:38:04;34.00;47.60
25512;DHT22;13414;44.534;18.700;2022-07-21T12:40:33;34.00;46.20
25512;DHT22;13414;44.534;18.700;2022-07-21T12:43:11;33.90;46.50
25512;DHT22;13414;44.534;18.700;2022-07-21T12:45:54;33.80;46.90
25512;DHT22;13414;44.534;18.700;2022-07-21T12:48:23;33.90;46.70
25512;DHT22;13414;44.534;18.700;2022-07-21T12:51:04;33.80;46.50
25512;DHT22;13414;44.534;18.700;2022-07-21T12:53:33;33.80;46.70
25512;DHT22;13414;44.534;18.700;2022-07-21T12:56:01;33.90;46.90
25512;DHT22;13414;44.534;18.700;2022-07-21T12:58:31;34.00;46.70
25512;DHT22;13414;44.534;18.700;2022-07-21T13:00:58;34.00;47.00
25512;DHT22;13414;44.534;18.700;2022-07-21T13:03:28;34.00;46.80
25512;DHT22;13414;44.534;18.700;2022-07-21T13:05:56;34.00;46.70
25512;DHT22;13414;44.534;18.700;2022-07-21T13:08:24;34.00;46.20
25512;DHT22;13414;44.534;18.700;2022-07-21T13:10:52;34.00;46.00
25512;DHT22;13414;44.534;18.700;2022-07-21T13:13:19;34.00;46.10
25512;DHT22;13414;44.534;18.700;2022-07-21T13:15:48;33.80;45.90
25512;DHT22;13414;44.534;18.700;2022-07-21T13:18:16;33.80;46.40
25512;DHT22;13414;44.534;18.700;2022-07-21T13:20:44;33.80;46.20
25512;DHT22;13414;44.534;18.700;2022-07-21T13:23:11;33.80;46.30
25512;DHT22;13414;44.534;18.700;2022-07-21T13:25:39;33.90;46.00
25512;DHT22;13414;44.534;18.700;2022-07-21T13:28:07;33.80;46.00
25512;DHT22;13414;44.534;18.700;2022-07-21T13:30:34;33.70;45.70
25512;DHT22;13414;44.534;18.700;2022-07-21T13:33:03;33.80;46.00
25512;DHT22;13414;44.534;18.700;2022-07-21T13:35:31;34.00;45.80
25512;DHT22;13414;44.534;18.700;2022-07-21T13:37:59;33.80;45.20
25512;DHT22;13414;44.534;18.700;2022-07-21T13:40:28;33.70;45.30
25512;DHT22;13414;44.534;18.700;2022-07-21T13:42:55;33.80;45.40
25512;DHT22;13414;44.534;18.700;2022-07-21T13:45:23;33.80;45.30
25512;DHT22;13414;44.534;18.700;2022-07-21T13:47:51;33.90;45.20
25512;DHT22;13414;44.534;18.700;2022-07-21T13:50:21;33.90;45.50
25512;DHT22;13414;44.534;18.700;2022-07-21T13:52:48;33.90;45.40
25512;DHT22;13414;44.534;18.700;2022-07-21T13:55:16;33.90;45.10
25512;DHT22;13414;44.534;18.700;2022-07-21T13:57:43;33.90;45.00
25512;DHT22;13414;44.534;18.700;2022-07-21T14:00:11;33.80;44.70
25512;DHT22;13414;44.534;18.700;2022-07-21T14:02:39;33.90;45.30
25512;DHT22;13414;44.534;18.700;2022-07-21T14:05:09;33.80;44.50
25512;DHT22;13414;44.534;18.700;2022-07-21T14:07:38;33.80;44.20
25512;DHT22;13414;44.534;18.700;2022-07-21T14:10:07;33.70;44.00
25512;DHT22;13414;44.534;18.700;2022-07-21T14:12:34;33.70;43.90
25512;DHT22;13414;44.534;18.700;2022-07-21T14:15:02;33.70;43.70
25512;DHT22;13414;44.534;18.700;2022-07-21T14:17:30;33.70;43.80
25512;DHT22;13414;44.534;18.700;2022-07-21T14:19:58;33.80;44.20
25512;DHT22;13414;44.534;18.700;2022-07-21T14:22:25;33.90;45.20
25512;DHT22;13414;44.534;18.700;2022-07-21T14:24:54;33.80;45.10
25512;DHT22;13414;44.534;18.700;2022-07-21T14:27:39;33.90;45.20
25512;DHT22;13414;44.534;18.700;2022-07-21T14:30:07;33.90;45.20
25512;DHT22;13414;44.534;18.700;2022-07-21T14:32:35;33.90;45.70
25512;DHT22;13414;44.534;18.700;2022-07-21T14:35:03;34.00;44.70
25512;DHT22;13414;44.534;18.700;2022-07-21T14:37:31;33.90;44.60
25512;DHT22;13414;44.534;18.700;2022-07-21T14:40:00;33.70;45.00
25512;DHT22;13414;44.534;18.700;2022-07-21T14:42:28;33.70;45.50
25512;DHT22;13414;44.534;18.700;2022-07-21T14:44:55;33.60;45.90
25512;DHT22;13414;44.534;18.700;2022-07-21T14:47:24;33.70;45.80
25512;DHT22;13414;44.534;18.700;2022-07-21T14:49:52;33.70;45.90
25512;DHT22;13414;44.534;18.700;2022-07-21T14:52:19;33.70;46.00
25512;DHT22;13414;44.534;18.700;2022-07-21T14:54:47;33.70;46.90
25512;DHT22;13414;44.534;18.700;2022-07-21T14:57:16;33.70;45.80
25512;DHT22;13414;44.534;18.700;2022-07-21T14:59:44;33.70;46.40
25512;DHT22;13414;44.534;18.700;2022-07-21T15:02:11;33.70;47.80
25512;DHT22;13414;44.534;18.700;2022-07-21T15:04:39;33.60;46.00
25512;DHT22;13414;44.534;18.700;2022-07-21T15:07:06;33.50;46.40
25512;DHT22;13414;44.534;18.700;2022-07-21T15:09:34;33.50;46.40
25512;DHT22;13414;44.534;18.700;2022-07-21T15:12:02;33.60;46.30
25512;DHT22;13414;44.534;18.700;2022-07-21T15:14:31;33.50;45.70
25512;DHT22;13414;44.534;18.700;2022-07-21T15:16:58;33.50;45.80
25512;DHT22;13414;44.534;18.700;2022-07-21T15:19:26;33.50;45.60
25512;DHT22;13414;44.534;18.700;2022-07-21T15:21:54;33.50;46.00
25512;DHT22;13414;44.534;18.700;2022-07-21T15:24:22;33.60;46.20
25512;DHT22;13414;44.534;18.700;2022-07-21T15:26:49;33.50;46.20
25512;DHT22;13414;44.534;18.700;2022-07-21T15:29:17;33.60;45.90
25512;DHT22;13414;44.534;18.700;2022-07-21T15:31:46;33.40;45.40
25512;DHT22;13414;44.534;18.700;2022-07-21T15:34:14;33.40;45.20
25512;DHT22;13414;44.534;18.700;2022-07-21T15:36:42;33.30;45.30
25512;DHT22;13414;44.534;18.700;2022-07-21T15:39:11;33.30;45.20
25512;DHT22;13414;44.534;18.700;2022-07-21T15:41:40;33.20;44.90
25512;DHT22;13414;44.534;18.700;2022-07-21T15:44:07;33.20;44.50
25512;DHT22;13414;44.534;18.700;2022-07-21T15:46:35;33.20;45.00
25512;DHT22;13414;44.534;18.700;2022-07-21T15:49:08;33.20;45.30
25512;DHT22;13414;44.534;18.700;2022-07-21T15:51:36;33.20;45.60
25512;DHT22;13414;44.534;18.700;2022-07-21T15:54:04;33.20;45.50
25512;DHT22;13414;44.534;18.700;2022-07-21T15:56:31;33.10;45.50
25512;DHT22;13414;44.534;18.700;2022-07-21T15:58:59;33.10;45.90
25512;DHT22;13414;44.534;18.700;2022-07-21T16:01:44;33.10;45.90
25512;DHT22;13414;44.534;18.700;2022-07-21T16:04:13;33.10;45.50
25512;DHT22;13414;44.534;18.700;2022-07-21T16:06:40;33.10;45.70
25512;DHT22;13414;44.534;18.700;2022-07-21T16:09:08;33.00;45.70
25512;DHT22;13414;44.534;18.700;2022-07-21T16:11:35;33.00;45.60
25512;DHT22;13414;44.534;18.700;2022-07-21T16:14:04;33.00;45.80
25512;DHT22;13414;44.534;18.700;2022-07-21T16:16:32;32.90;45.60
25512;DHT22;13414;44.534;18.700;2022-07-21T16:19:00;32.90;45.70
25512;DHT22;13414;44.534;18.700;2022-07-21T16:21:30;32.80;45.80
25512;DHT22;13414;44.534;18.700;2022-07-21T16:23:57;32.80;46.20
25512;DHT22;13414;44.534;18.700;2022-07-21T16:26:25;32.80;45.20
25512;DHT22;13414;44.534;18.700;2022-07-21T16:28:53;32.70;45.30
25512;DHT22;13414;44.534;18.700;2022-07-21T16:31:20;32.70;45.40
25512;DHT22;13414;44.534;18.700;2022-07-21T16:33:48;32.70;45.90
25512;DHT22;13414;44.534;18.700;2022-07-21T16:36:16;32.60;46.00
25512;DHT22;13414;44.534;18.700;2022-07-21T16:38:45;32.50;46.30
25512;DHT22;13414;44.534;18.700;2022-07-21T16:41:13;32.50;46.80
25512;DHT22;13414;44.534;18.700;2022-07-21T16:43:40;32.50;47.30
25512;DHT22;13414;44.534;18.700;2022-07-21T16:46:08;32.30;47.60
25512;DHT22;13414;44.534;18.700;2022-07-21T16:48:36;32.30;48.00
25512;DHT22;13414;44.534;18.700;2022-07-21T16:51:03;32.20;48.20
25512;DHT22;13414;44.534;18.700;2022-07-21T16:53:32;32.10;48.70
25512;DHT22;13414;44.534;18.700;2022-07-21T16:56:01;32.10;48.70
25512;DHT22;13414;44.534;18.700;2022-07-21T16:58:29;32.00;48.70
25512;DHT22;13414;44.534;18.700;2022-07-21T17:00:56;32.00;49.10
25512;DHT22;13414;44.534;18.700;2022-07-21T17:03:25;32.00;49.10
25512;DHT22;13414;44.534;18.700;2022-07-21T17:05:53;31.90;49.20
25512;DHT22;13414;44.534;18.700;2022-07-21T17:08:20;31.90;49.60
25512;DHT22;13414;44.534;18.700;2022-07-21T17:10:48;31.90;49.60